createdAt,value
2023-01-13T00:04:44.068Z,96671.06
2023-01-13T00:09:46.185Z,96672.97
2023-01-13T00:14:49.484Z,96682.16
2023-01-13T00:19:51.656Z,96674.22
2023-01-13T00:24:53.698Z,96666.56
2023-01-13T00:29:57.088Z,96668.22
2023-01-13T00:34:59.115Z,96665.91
2023-01-13T00:40:01.149Z,96681.94
2023-01-13T00:45:05.646Z,96684.94
2023-01-13T00:50:08.945Z,96684.00
2023-01-13T00:55:11.021Z,96690.81
2023-01-13T01:00:14.982Z,96698.34
2023-01-13T01:05:17.259Z,96692.59
2023-01-13T01:10:19.503Z,96694.56
2023-01-13T01:15:22.993Z,96686.38
2023-01-13T01:20:25.022Z,96702.41
2023-01-13T01:25:27.025Z,96695.81
2023-01-13T01:30:30.666Z,96688.69
2023-01-13T01:35:32.660Z,96682.09
2023-01-13T01:40:35.130Z,96669.78
2023-01-13T01:45:38.482Z,96652.41
2023-01-13T01:50:40.737Z,96649.53
2023-01-13T01:55:42.898Z,96651.66
2023-01-13T02:00:46.247Z,96644.75
2023-01-13T02:05:48.380Z,96638.47
2023-01-13T02:10:53.797Z,96639.53
2023-01-13T02:16:02.540Z,96620.41
2023-01-13T02:21:24.017Z,96617.19
2023-01-13T02:27:02.659Z,96615.94
2023-01-13T02:32:17.786Z,96601.66
2023-01-13T02:37:28.677Z,96591.34
2023-01-13T02:42:51.502Z,96600.75
2023-01-13T02:47:58.493Z,96565.75
2023-01-13T02:53:05.939Z,96587.72
2023-01-13T02:58:11.983Z,96594.25
2023-01-13T03:03:15.640Z,96588.25
2023-01-13T03:08:30.208Z,96577.97
2023-01-13T03:13:51.245Z,96575.56
2023-01-13T03:19:04.946Z,96577.09
2023-01-13T03:24:12.333Z,96577.06
2023-01-13T03:29:20.797Z,96570.53
2023-01-13T03:34:30.266Z,96560.28
2023-01-13T03:39:37.677Z,96555.13
2023-01-13T03:44:46.013Z,96544.16
2023-01-13T03:49:56.111Z,96552.41
2023-01-13T03:55:02.472Z,96560.69
2023-01-13T04:00:09.487Z,96547.63
2023-01-13T04:05:14.129Z,96548.22
2023-01-13T04:10:20.028Z,96560.88
2023-01-13T04:15:24.106Z,96549.44
2023-01-13T04:20:27.601Z,96542.28
2023-01-13T04:25:29.422Z,96540.63
2023-01-13T04:30:31.579Z,96554.66
2023-01-13T04:35:35.666Z,96570.19
2023-01-13T04:40:38.030Z,96562.25
2023-01-13T04:45:39.981Z,96561.84
2023-01-13T04:50:43.526Z,96570.22
2023-01-13T04:55:47.776Z,96567.78
2023-01-13T05:00:50.451Z,96560.31
2023-01-13T05:05:53.771Z,96558.75
2023-01-13T05:10:55.714Z,96571.88
2023-01-13T05:16:23.209Z,96562.84
2023-01-13T05:21:45.258Z,96566.50
2023-01-13T05:26:47.220Z,96568.94
2023-01-13T05:31:49.302Z,96565.69
2023-01-13T05:36:52.583Z,96557.38
2023-01-13T05:42:13.072Z,96576.25
2023-01-13T05:47:15.066Z,96564.38
2023-01-13T05:52:18.372Z,96563.00
2023-01-13T05:57:20.295Z,96563.63
2023-01-13T06:02:22.439Z,96557.38
2023-01-13T06:07:25.759Z,96540.00
2023-01-13T06:12:27.723Z,96551.88
2023-01-13T06:17:29.694Z,96549.78
2023-01-13T06:22:35.515Z,96577.09
2023-01-13T06:27:38.065Z,96562.16
2023-01-13T06:32:43.980Z,96578.03
2023-01-13T06:37:50.485Z,96567.78
2023-01-13T06:43:15.978Z,96565.06
2023-01-13T06:48:20.251Z,96565.06
2023-01-13T06:53:23.510Z,96574.22
2023-01-13T06:58:25.507Z,96571.75
2023-01-13T07:03:27.463Z,96554.38
2023-01-13T07:08:31.263Z,96562.59
2023-01-13T07:13:53.420Z,96578.81
2023-01-13T07:18:55.410Z,96574.09
2023-01-13T07:23:58.700Z,96565.53
2023-01-13T07:29:00.994Z,96581.56
2023-01-13T07:34:04.037Z,96577.28
2023-01-13T07:39:07.375Z,96562.47
2023-01-13T07:44:10.781Z,96563.38
2023-01-13T07:49:13.183Z,96560.03
2023-01-13T07:54:17.180Z,96559.44
2023-01-13T07:59:20.108Z,96560.94
2023-01-13T08:04:22.385Z,96551.56
2023-01-13T08:09:25.953Z,96563.44
2023-01-13T08:14:27.912Z,96558.53
2023-01-13T08:19:29.851Z,96550.03
2023-01-13T08:24:33.171Z,96543.16
2023-01-13T08:29:34.983Z,96544.97
2023-01-13T08:34:36.966Z,96546.97
2023-01-13T08:39:40.356Z,96551.03
2023-01-13T08:44:42.368Z,96561.84
2023-01-13T08:49:44.320Z,96548.13
2023-01-13T08:54:47.815Z,96558.47
2023-01-13T08:59:49.785Z,96565.44
2023-01-13T09:04:52.615Z,96562.25
2023-01-13T09:09:56.948Z,96563.59
2023-01-13T09:14:59.047Z,96566.50
2023-01-13T09:20:01.040Z,96556.31
2023-01-13T09:25:05.096Z,96557.22
2023-01-13T09:30:08.462Z,96578.94
2023-01-13T09:35:10.468Z,96564.91
2023-01-13T09:40:19.087Z,96585.19
2023-01-13T09:45:25.367Z,96565.88
2023-01-13T09:50:45.877Z,96567.19
2023-01-13T09:55:49.581Z,96536.38
2023-01-13T10:01:04.713Z,96544.28
2023-01-13T10:06:15.530Z,96523.28
2023-01-13T10:11:39.316Z,96515.47
2023-01-13T10:16:47.254Z,96514.41
2023-01-13T10:22:17.435Z,96506.56
2023-01-13T10:27:28.923Z,96508.50
2023-01-13T10:32:30.906Z,96494.66
2023-01-13T10:37:32.860Z,96499.84
2023-01-13T10:42:36.176Z,96492.34
2023-01-13T10:47:38.155Z,96494.06
2023-01-13T10:52:43.384Z,96478.19
2023-01-13T10:57:46.727Z,96480.59
2023-01-13T11:03:15.298Z,96486.94
2023-01-13T11:08:18.913Z,96489.31
2023-01-13T11:13:32.060Z,96468.78
2023-01-13T11:18:43.583Z,96463.25
2023-01-13T11:23:52.295Z,96458.97
2023-01-13T11:29:00.853Z,96453.66
2023-01-13T11:34:07.885Z,96461.41
2023-01-13T11:39:19.492Z,96457.25
2023-01-13T11:44:34.421Z,96444.50
2023-01-13T11:49:38.616Z,96454.22
2023-01-13T11:55:01.696Z,96440.16
2023-01-13T12:00:28.160Z,96443.59
2023-01-13T12:05:36.779Z,96426.06
2023-01-13T12:10:46.438Z,96437.06
2023-01-13T12:16:21.303Z,96439.53
2023-01-13T12:21:25.658Z,96449.94
2023-01-13T12:26:32.632Z,96459.81
2023-01-13T12:31:38.822Z,96450.16
2023-01-13T12:36:51.549Z,96441.34
2023-01-13T12:42:17.841Z,96451.94
2023-01-13T12:47:34.959Z,96446.22
2023-01-13T12:52:44.077Z,96441.13
2023-01-13T12:58:12.828Z,96438.47
2023-01-13T13:03:27.550Z,96444.63
2023-01-13T13:09:01.087Z,96432.69
2023-01-13T13:14:05.169Z,96426.06
2023-01-13T13:19:43.588Z,96422.38
2023-01-13T13:25:27.490Z,96448.28
2023-01-13T13:30:31.038Z,96444.78
2023-01-13T13:35:52.343Z,96444.81
2023-01-13T13:41:12.944Z,96441.56
2023-01-13T13:46:42.673Z,96435.22
2023-01-13T13:51:54.680Z,96436.75
2023-01-13T13:56:58.149Z,96454.13
2023-01-13T14:02:03.517Z,96441.34
2023-01-13T14:07:18.344Z,96436.25
2023-01-13T14:12:22.640Z,96449.09
2023-01-13T14:17:28.378Z,96458.31
2023-01-13T14:22:32.438Z,96462.59
2023-01-13T14:27:35.407Z,96470.97
2023-01-13T14:32:37.918Z,96471.13
2023-01-13T14:37:43.161Z,96465.78
2023-01-13T14:42:45.134Z,96474.97
2023-01-13T14:47:52.447Z,96488.91
2023-01-13T14:52:57.188Z,96494.63
2023-01-13T14:58:24.338Z,96495.38
2023-01-13T15:03:26.321Z,96479.06
2023-01-13T15:08:34.855Z,96475.53
2023-01-13T15:13:42.280Z,96475.56
2023-01-13T15:18:47.214Z,96477.25
2023-01-13T15:23:51.846Z,96490.81
2023-01-13T15:28:56.058Z,96504.84
2023-01-13T15:34:00.108Z,96493.09
2023-01-13T15:39:04.151Z,96496.94
2023-01-13T15:44:24.730Z,96498.19
2023-01-13T15:49:34.893Z,96510.25
2023-01-13T15:54:38.238Z,96527.34
2023-01-13T15:59:40.231Z,96504.94
2023-01-13T16:04:42.378Z,96520.81
2023-01-13T16:09:45.937Z,96513.50
2023-01-13T16:14:47.965Z,96511.03
2023-01-13T16:19:50.069Z,96535.16
2023-01-13T16:24:53.451Z,96549.97
2023-01-13T16:29:55.496Z,96540.63
2023-01-13T16:34:59.198Z,96572.53
2023-01-13T16:40:03.427Z,96567.06
2023-01-13T16:45:09.520Z,96561.72
2023-01-13T16:50:23.393Z,96573.47
2023-01-13T16:55:27.712Z,96564.75
2023-01-13T17:00:29.984Z,96552.09
2023-01-13T17:05:32.022Z,96553.75
2023-01-13T17:10:35.376Z,96551.78
2023-01-13T17:15:37.377Z,96549.81
2023-01-13T17:20:40.254Z,96504.03
2023-01-13T17:25:43.618Z,96532.88
2023-01-13T17:30:46.937Z,96525.56
2023-01-13T17:35:49.018Z,96520.34
2023-01-13T17:40:52.374Z,96530.56
2023-01-13T17:45:54.434Z,96516.69
2023-01-13T17:50:56.447Z,96534.69
2023-01-13T17:55:59.793Z,96519.59
2023-01-13T18:01:06.459Z,96520.81
2023-01-13T18:06:14.338Z,96536.69
2023-01-13T18:11:19.314Z,96546.91
2023-01-13T18:16:21.457Z,96546.47
2023-01-13T18:21:44.961Z,96543.38
2023-01-13T18:27:07.174Z,96548.72
2023-01-13T18:32:09.430Z,96576.03
2023-01-13T18:37:13.045Z,96588.06
2023-01-13T18:42:34.864Z,96607.59
2023-01-13T18:47:39.106Z,96607.41
2023-01-13T18:52:41.395Z,96611.13
2023-01-13T18:57:45.041Z,96619.13
2023-01-13T19:02:47.691Z,96627.66
2023-01-13T19:07:51.679Z,96637.75
2023-01-13T19:12:55.001Z,96646.44
2023-01-13T19:17:56.994Z,96654.81
2023-01-13T19:22:59.113Z,96660.59
2023-01-13T19:28:02.508Z,96649.31
2023-01-13T19:33:04.507Z,96654.25
2023-01-13T19:38:06.574Z,96662.41
2023-01-13T19:43:28.821Z,96671.44
2023-01-13T19:48:32.656Z,96691.91
2023-01-13T19:53:34.846Z,96712.59
2023-01-13T19:58:38.485Z,96725.66
2023-01-13T20:03:40.951Z,96733.03
2023-01-13T20:08:45.998Z,96762.84
2023-01-13T20:13:49.503Z,96771.63
2023-01-13T20:18:51.739Z,96788.34
2023-01-13T20:23:53.914Z,96789.97
2023-01-13T20:28:57.449Z,96797.56
2023-01-13T20:33:59.439Z,96789.78
2023-01-13T20:39:05.517Z,96795.22
2023-01-13T20:44:12.283Z,96786.16
2023-01-13T20:49:15.846Z,96768.91
2023-01-13T20:54:18.494Z,96782.84
2023-01-13T20:59:22.885Z,96785.97
2023-01-13T21:04:25.532Z,96783.22
2023-01-13T21:09:27.649Z,96799.53
2023-01-13T21:14:49.942Z,96790.75
2023-01-13T21:19:51.911Z,96796.75
2023-01-13T21:24:53.965Z,96791.84
2023-01-13T21:29:57.372Z,96795.56
2023-01-13T21:34:59.430Z,96787.25
2023-01-13T21:40:01.508Z,96806.53
2023-01-13T21:45:24.038Z,96813.63
2023-01-13T21:50:26.980Z,96811.22
2023-01-13T21:55:29.394Z,96812.41
2023-01-13T22:00:34.254Z,96823.44
2023-01-13T22:05:36.612Z,96820.50
2023-01-13T22:10:57.016Z,96829.72
2023-01-13T22:16:04.605Z,96820.81
2023-01-13T22:21:06.756Z,96827.09
2023-01-13T22:26:08.905Z,96819.88
2023-01-13T22:31:14.413Z,96824.78
2023-01-13T22:36:16.413Z,96823.00
2023-01-13T22:41:18.514Z,96843.75
2023-01-13T22:46:22.935Z,96833.06
2023-01-13T22:51:26.501Z,96837.69
2023-01-13T22:56:28.453Z,96838.81
2023-01-13T23:01:33.231Z,96839.19
2023-01-13T23:06:35.504Z,96864.56
2023-01-13T23:11:37.580Z,96892.41
2023-01-13T23:16:41.381Z,96891.34
2023-01-13T23:21:43.472Z,96890.69
2023-01-13T23:26:45.481Z,96886.19
2023-01-13T23:31:48.851Z,96874.03
2023-01-13T23:36:50.840Z,96864.28
2023-01-13T23:41:52.867Z,96867.66
2023-01-13T23:46:56.238Z,96872.16
2023-01-13T23:51:58.331Z,96867.88
2023-01-13T23:57:00.590Z,96883.00
